sensor_id;sensor_type;location;lat;lon;timestamp;temperature;humidity
68842;SHT35;55849;48.482;2.332;2023-09-18T00:02:59;22.39;80.85
68842;SHT35;55849;48.482;2.332;2023-09-18T00:06:03;22.36;80.89
68842;SHT35;55849;48.482;2.332;2023-09-18T00:09:04;22.36;80.37
68842;SHT35;55849;48.482;2.332;2023-09-18T00:12:07;22.33;80.35
68842;SHT35;55849;48.482;2.332;2023-09-18T00:15:11;22.32;80.60
68842;SHT35;55849;48.482;2.332;2023-09-18T00:18:13;22.29;81.07
68842;SHT35;55849;48.482;2.332;2023-09-18T00:21:15;22.29;80.01
68842;SHT35;55849;48.482;2.332;2023-09-18T00:24:16;22.24;79.16
68842;SHT35;55849;48.482;2.332;2023-09-18T00:27:18;22.23;81.59
68842;SHT35;55849;48.482;2.332;2023-09-18T00:30:21;22.19;79.71
68842;SHT35;55849;48.482;2.332;2023-09-18T00:33:23;22.14;80.85
68842;SHT35;55849;48.482;2.332;2023-09-18T00:36:24;22.13;81.19
68842;SHT35;55849;48.482;2.332;2023-09-18T00:39:26;22.09;80.58
68842;SHT35;55849;48.482;2.332;2023-09-18T00:42:28;22.06;80.56
68842;SHT35;55849;48.482;2.332;2023-09-18T00:45:31;22.06;80.83
68842;SHT35;55849;48.482;2.332;2023-09-18T00:48:33;22.02;80.93
68842;SHT35;55849;48.482;2.332;2023-09-18T00:51:34;22.02;81.68
68842;SHT35;55849;48.482;2.332;2023-09-18T00:54:37;22.01;81.11
68842;SHT35;55849;48.482;2.332;2023-09-18T00:57:39;21.98;79.77
68842;SHT35;55849;48.482;2.332;2023-09-18T01:00:43;21.95;79.97
68842;SHT35;55849;48.482;2.332;2023-09-18T01:03:44;21.95;81.14
68842;SHT35;55849;48.482;2.332;2023-09-18T01:06:46;21.93;81.21
68842;SHT35;55849;48.482;2.332;2023-09-18T01:09:49;21.96;81.10
68842;SHT35;55849;48.482;2.332;2023-09-18T01:12:55;21.96;81.40
68842;SHT35;55849;48.482;2.332;2023-09-18T01:16:02;21.93;81.16
68842;SHT35;55849;48.482;2.332;2023-09-18T01:19:08;21.93;81.16
68842;SHT35;55849;48.482;2.332;2023-09-18T01:22:10;21.92;81.06
68842;SHT35;55849;48.482;2.332;2023-09-18T01:25:13;21.96;81.65
68842;SHT35;55849;48.482;2.332;2023-09-18T01:28:15;21.95;80.93
68842;SHT35;55849;48.482;2.332;2023-09-18T01:31:17;21.95;81.60
68842;SHT35;55849;48.482;2.332;2023-09-18T01:34:19;21.96;80.67
68842;SHT35;55849;48.482;2.332;2023-09-18T01:37:24;21.96;81.29
68842;SHT35;55849;48.482;2.332;2023-09-18T01:40:28;21.95;81.04
68842;SHT35;55849;48.482;2.332;2023-09-18T01:43:31;21.96;81.03
68842;SHT35;55849;48.482;2.332;2023-09-18T01:46:33;21.96;81.23
68842;SHT35;55849;48.482;2.332;2023-09-18T01:49:38;21.96;81.63
68842;SHT35;55849;48.482;2.332;2023-09-18T01:52:40;21.95;80.23
68842;SHT35;55849;48.482;2.332;2023-09-18T01:55:43;21.95;80.54
68842;SHT35;55849;48.482;2.332;2023-09-18T01:58:45;21.92;80.80
68842;SHT35;55849;48.482;2.332;2023-09-18T02:01:47;21.91;79.62
68842;SHT35;55849;48.482;2.332;2023-09-18T02:04:48;21.86;80.87
68842;SHT35;55849;48.482;2.332;2023-09-18T02:07:50;21.86;80.24
68842;SHT35;55849;48.482;2.332;2023-09-18T02:10:53;21.85;80.69
68842;SHT35;55849;48.482;2.332;2023-09-18T02:13:55;21.82;81.31
68842;SHT35;55849;48.482;2.332;2023-09-18T02:16:57;21.79;80.82
68842;SHT35;55849;48.482;2.332;2023-09-18T02:19:58;21.81;81.67
68842;SHT35;55849;48.482;2.332;2023-09-18T02:23:01;21.81;80.67
68842;SHT35;55849;48.482;2.332;2023-09-18T02:26:04;21.79;80.36
68842;SHT35;55849;48.482;2.332;2023-09-18T02:29:07;21.79;80.96
68842;SHT35;55849;48.482;2.332;2023-09-18T02:32:11;21.79;80.79
68842;SHT35;55849;48.482;2.332;2023-09-18T02:35:13;21.78;80.82
68842;SHT35;55849;48.482;2.332;2023-09-18T02:38:14;21.78;79.88
68842;SHT35;55849;48.482;2.332;2023-09-18T02:41:17;21.74;80.10
68842;SHT35;55849;48.482;2.332;2023-09-18T02:44:19;21.74;80.00
68842;SHT35;55849;48.482;2.332;2023-09-18T02:47:20;21.73;81.47
68842;SHT35;55849;48.482;2.332;2023-09-18T02:50:22;21.71;79.87
68842;SHT35;55849;48.482;2.332;2023-09-18T02:53:24;21.67;80.54
68842;SHT35;55849;48.482;2.332;2023-09-18T02:56:27;21.71;80.18
68842;SHT35;55849;48.482;2.332;2023-09-18T02:59:29;21.65;80.70
68842;SHT35;55849;48.482;2.332;2023-09-18T03:02:31;21.65;80.95
68842;SHT35;55849;48.482;2.332;2023-09-18T03:05:33;21.62;79.69
68842;SHT35;55849;48.482;2.332;2023-09-18T03:08:34;21.61;80.84
68842;SHT35;55849;48.482;2.332;2023-09-18T03:11:38;21.61;81.44
68842;SHT35;55849;48.482;2.332;2023-09-18T03:14:39;21.62;80.85
68842;SHT35;55849;48.482;2.332;2023-09-18T03:17:41;21.61;80.25
68842;SHT35;55849;48.482;2.332;2023-09-18T03:20:42;21.60;81.58
68842;SHT35;55849;48.482;2.332;2023-09-18T03:23:44;21.60;80.65
68842;SHT35;55849;48.482;2.332;2023-09-18T03:26:47;21.60;80.90
68842;SHT35;55849;48.482;2.332;2023-09-18T03:29:49;21.61;81.06
68842;SHT35;55849;48.482;2.332;2023-09-18T03:32:51;21.61;81.12
68842;SHT35;55849;48.482;2.332;2023-09-18T03:35:53;21.61;80.70
68842;SHT35;55849;48.482;2.332;2023-09-18T03:38:58;21.61;81.18
68842;SHT35;55849;48.482;2.332;2023-09-18T03:42:01;21.64;81.66
68842;SHT35;55849;48.482;2.332;2023-09-18T03:45:05;21.62;81.52
68842;SHT35;55849;48.482;2.332;2023-09-18T03:48:07;21.64;81.30
68842;SHT35;55849;48.482;2.332;2023-09-18T03:51:09;21.61;80.77
68842;SHT35;55849;48.482;2.332;2023-09-18T03:54:12;21.61;81.14
68842;SHT35;55849;48.482;2.332;2023-09-18T03:57:15;21.60;81.41
68842;SHT35;55849;48.482;2.332;2023-09-18T04:00:17;21.62;81.50
68842;SHT35;55849;48.482;2.332;2023-09-18T04:03:19;21.62;80.53
68842;SHT35;55849;48.482;2.332;2023-09-18T04:06:20;21.60;81.28
68842;SHT35;55849;48.482;2.332;2023-09-18T04:09:24;21.62;81.99
68842;SHT35;55849;48.482;2.332;2023-09-18T04:12:27;21.62;82.08
68842;SHT35;55849;48.482;2.332;2023-09-18T04:15:29;21.61;81.19
68842;SHT35;55849;48.482;2.332;2023-09-18T04:18:31;21.64;80.54
68842;SHT35;55849;48.482;2.332;2023-09-18T04:21:33;21.61;81.84
68842;SHT35;55849;48.482;2.332;2023-09-18T04:24:35;21.61;81.71
68842;SHT35;55849;48.482;2.332;2023-09-18T04:27:37;21.61;81.85
68842;SHT35;55849;48.482;2.332;2023-09-18T04:30:39;21.65;81.39
68842;SHT35;55849;48.482;2.332;2023-09-18T04:33:41;21.62;81.23
68842;SHT35;55849;48.482;2.332;2023-09-18T04:36:43;21.64;82.18
68842;SHT35;55849;48.482;2.332;2023-09-18T04:39:45;21.64;81.78
68842;SHT35;55849;48.482;2.332;2023-09-18T04:42:48;21.65;82.03
68842;SHT35;55849;48.482;2.332;2023-09-18T04:45:49;21.65;81.34
68842;SHT35;55849;48.482;2.332;2023-09-18T04:48:51;21.65;80.69
68842;SHT35;55849;48.482;2.332;2023-09-18T04:51:52;21.62;81.76
68842;SHT35;55849;48.482;2.332;2023-09-18T04:54:54;21.62;81.01
68842;SHT35;55849;48.482;2.332;2023-09-18T04:57:59;21.60;81.94
68842;SHT35;55849;48.482;2.332;2023-09-18T05:01:00;21.60;80.14
68842;SHT35;55849;48.482;2.332;2023-09-18T05:04:02;21.57;80.80
68842;SHT35;55849;48.482;2.332;2023-09-18T05:07:04;21.54;81.72
68842;SHT35;55849;48.482;2.332;2023-09-18T05:10:06;21.58;81.54
68842;SHT35;55849;48.482;2.332;2023-09-18T05:13:10;21.55;81.23
68842;SHT35;55849;48.482;2.332;2023-09-18T05:16:12;21.53;81.44
68842;SHT35;55849;48.482;2.332;2023-09-18T05:19:13;21.49;81.61
68842;SHT35;55849;48.482;2.332;2023-09-18T05:22:15;21.49;80.72
68842;SHT35;55849;48.482;2.332;2023-09-18T05:25:17;21.51;81.23
68842;SHT35;55849;48.482;2.332;2023-09-18T05:28:20;21.49;80.69
68842;SHT35;55849;48.482;2.332;2023-09-18T05:31:21;21.47;80.87
68842;SHT35;55849;48.482;2.332;2023-09-18T05:34:23;21.46;80.49
68842;SHT35;55849;48.482;2.332;2023-09-18T05:37:25;21.44;80.27
68842;SHT35;55849;48.482;2.332;2023-09-18T05:40:26;21.41;81.45
68842;SHT35;55849;48.482;2.332;2023-09-18T05:43:29;21.44;81.45
68842;SHT35;55849;48.482;2.332;2023-09-18T05:46:31;21.46;80.89
68842;SHT35;55849;48.482;2.332;2023-09-18T05:49:33;21.44;81.15
68842;SHT35;55849;48.482;2.332;2023-09-18T05:52:35;21.44;81.02
68842;SHT35;55849;48.482;2.332;2023-09-18T05:55:37;21.43;80.99
68842;SHT35;55849;48.482;2.332;2023-09-18T05:58:40;21.41;80.58
68842;SHT35;55849;48.482;2.332;2023-09-18T06:01:41;21.43;80.65
68842;SHT35;55849;48.482;2.332;2023-09-18T06:04:43;21.41;81.05
68842;SHT35;55849;48.482;2.332;2023-09-18T06:07:45;21.43;81.25
68842;SHT35;55849;48.482;2.332;2023-09-18T06:10:46;21.43;80.76
68842;SHT35;55849;48.482;2.332;2023-09-18T06:13:49;21.43;81.15
68842;SHT35;55849;48.482;2.332;2023-09-18T06:16:51;21.41;80.58
68842;SHT35;55849;48.482;2.332;2023-09-18T06:19:52;21.43;80.39
68842;SHT35;55849;48.482;2.332;2023-09-18T06:22:54;21.43;80.86
68842;SHT35;55849;48.482;2.332;2023-09-18T06:25:56;21.43;81.23
68842;SHT35;55849;48.482;2.332;2023-09-18T06:29:00;21.43;81.18
68842;SHT35;55849;48.482;2.332;2023-09-18T06:32:02;21.40;80.15
68842;SHT35;55849;48.482;2.332;2023-09-18T06:35:05;21.43;80.74
68842;SHT35;55849;48.482;2.332;2023-09-18T06:38:06;21.41;81.17
68842;SHT35;55849;48.482;2.332;2023-09-18T06:41:10;21.43;80.82
68842;SHT35;55849;48.482;2.332;2023-09-18T06:44:13;21.41;80.86
68842;SHT35;55849;48.482;2.332;2023-09-18T06:47:14;21.43;80.98
68842;SHT35;55849;48.482;2.332;2023-09-18T06:50:16;21.44;81.28
68842;SHT35;55849;48.482;2.332;2023-09-18T06:53:19;21.43;81.46
68842;SHT35;55849;48.482;2.332;2023-09-18T06:56:20;21.41;80.87
68842;SHT35;55849;48.482;2.332;2023-09-18T06:59:23;21.46;80.84
68842;SHT35;55849;48.482;2.332;2023-09-18T07:02:25;21.46;80.65
68842;SHT35;55849;48.482;2.332;2023-09-18T07:05:27;21.44;80.67
68842;SHT35;55849;48.482;2.332;2023-09-18T07:08:29;21.43;81.12
68842;SHT35;55849;48.482;2.332;2023-09-18T07:11:31;21.47;80.84
68842;SHT35;55849;48.482;2.332;2023-09-18T07:14:34;21.46;80.81
68842;SHT35;55849;48.482;2.332;2023-09-18T07:17:35;21.46;80.79
68842;SHT35;55849;48.482;2.332;2023-09-18T07:20:37;21.47;80.83
68842;SHT35;55849;48.482;2.332;2023-09-18T07:23:39;21.47;80.76
68842;SHT35;55849;48.482;2.332;2023-09-18T07:26:43;21.47;80.68
68842;SHT35;55849;48.482;2.332;2023-09-18T07:29:46;21.46;80.59
68842;SHT35;55849;48.482;2.332;2023-09-18T07:32:49;21.50;80.20
68842;SHT35;55849;48.482;2.332;2023-09-18T07:35:51;21.49;80.70
68842;SHT35;55849;48.482;2.332;2023-09-18T07:38:53;21.47;80.35
68842;SHT35;55849;48.482;2.332;2023-09-18T07:41:56;21.51;80.49
68842;SHT35;55849;48.482;2.332;2023-09-18T07:44:59;21.50;80.58
68842;SHT35;55849;48.482;2.332;2023-09-18T07:48:01;21.50;81.10
68842;SHT35;55849;48.482;2.332;2023-09-18T07:51:03;21.51;80.85
68842;SHT35;55849;48.482;2.332;2023-09-18T07:54:04;21.55;80.99
68842;SHT35;55849;48.482;2.332;2023-09-18T07:57:06;21.54;80.77
68842;SHT35;55849;48.482;2.332;2023-09-18T08:00:12;21.57;80.47
68842;SHT35;55849;48.482;2.332;2023-09-18T08:03:16;21.54;80.99
68842;SHT35;55849;48.482;2.332;2023-09-18T08:06:17;21.60;80.31
68842;SHT35;55849;48.482;2.332;2023-09-18T08:09:19;21.60;80.12
68842;SHT35;55849;48.482;2.332;2023-09-18T08:12:23;21.58;79.28
68842;SHT35;55849;48.482;2.332;2023-09-18T08:15:26;21.61;79.79
68842;SHT35;55849;48.482;2.332;2023-09-18T08:18:28;21.58;80.53
68842;SHT35;55849;48.482;2.332;2023-09-18T08:21:30;21.58;80.38
68842;SHT35;55849;48.482;2.332;2023-09-18T08:24:32;21.61;79.55
68842;SHT35;55849;48.482;2.332;2023-09-18T08:27:33;21.61;80.41
68842;SHT35;55849;48.482;2.332;2023-09-18T08:30:37;21.64;80.37
68842;SHT35;55849;48.482;2.332;2023-09-18T08:33:40;21.65;80.56
68842;SHT35;55849;48.482;2.332;2023-09-18T08:36:42;21.71;80.40
68842;SHT35;55849;48.482;2.332;2023-09-18T08:39:43;21.69;79.95
68842;SHT35;55849;48.482;2.332;2023-09-18T08:42:47;21.73;80.44
68842;SHT35;55849;48.482;2.332;2023-09-18T08:45:52;21.77;80.14
68842;SHT35;55849;48.482;2.332;2023-09-18T08:48:54;21.79;80.40
68842;SHT35;55849;48.482;2.332;2023-09-18T08:51:57;21.78;80.44
68842;SHT35;55849;48.482;2.332;2023-09-18T08:55:00;21.82;79.76
68842;SHT35;55849;48.482;2.332;2023-09-18T08:58:03;21.84;79.49
68842;SHT35;55849;48.482;2.332;2023-09-18T09:01:06;21.82;78.36
68842;SHT35;55849;48.482;2.332;2023-09-18T09:04:10;21.82;78.90
68842;SHT35;55849;48.482;2.332;2023-09-18T09:07:11;21.84;79.63
68842;SHT35;55849;48.482;2.332;2023-09-18T09:10:13;21.88;79.79
68842;SHT35;55849;48.482;2.332;2023-09-18T09:13:15;21.89;79.16
68842;SHT35;55849;48.482;2.332;2023-09-18T09:16:18;21.93;78.95
68842;SHT35;55849;48.482;2.332;2023-09-18T09:19:28;21.98;78.35
68842;SHT35;55849;48.482;2.332;2023-09-18T09:22:31;21.99;78.31
68842;SHT35;55849;48.482;2.332;2023-09-18T09:25:35;22.02;79.15
68842;SHT35;55849;48.482;2.332;2023-09-18T09:28:37;22.06;79.25
68842;SHT35;55849;48.482;2.332;2023-09-18T09:31:40;22.09;78.06
68842;SHT35;55849;48.482;2.332;2023-09-18T09:34:42;22.13;77.62
68842;SHT35;55849;48.482;2.332;2023-09-18T09:37:44;22.14;76.82
68842;SHT35;55849;48.482;2.332;2023-09-18T09:40:46;22.10;77.11
68842;SHT35;55849;48.482;2.332;2023-09-18T09:43:48;22.10;76.29
68842;SHT35;55849;48.482;2.332;2023-09-18T09:46:51;22.08;76.49
68842;SHT35;55849;48.482;2.332;2023-09-18T09:49:52;22.06;77.10
68842;SHT35;55849;48.482;2.332;2023-09-18T09:52:55;22.12;76.51
68842;SHT35;55849;48.482;2.332;2023-09-18T09:55:56;22.10;76.52
68842;SHT35;55849;48.482;2.332;2023-09-18T09:59:01;22.12;76.66
68842;SHT35;55849;48.482;2.332;2023-09-18T10:02:10;22.13;76.96
68842;SHT35;55849;48.482;2.332;2023-09-18T10:05:12;22.16;76.57
68842;SHT35;55849;48.482;2.332;2023-09-18T10:08:17;22.20;76.84
68842;SHT35;55849;48.482;2.332;2023-09-18T10:11:20;22.21;76.58
68842;SHT35;55849;48.482;2.332;2023-09-18T10:14:29;22.23;76.61
68842;SHT35;55849;48.482;2.332;2023-09-18T10:17:33;22.27;76.00
68842;SHT35;55849;48.482;2.332;2023-09-18T10:20:39;22.29;76.20
68842;SHT35;55849;48.482;2.332;2023-09-18T10:23:53;22.29;76.11
68842;SHT35;55849;48.482;2.332;2023-09-18T10:27:01;22.32;75.48
68842;SHT35;55849;48.482;2.332;2023-09-18T10:30:07;22.33;75.59
68842;SHT35;55849;48.482;2.332;2023-09-18T10:33:12;22.39;75.66
68842;SHT35;55849;48.482;2.332;2023-09-18T10:36:16;22.41;76.35
68842;SHT35;55849;48.482;2.332;2023-09-18T10:39:20;22.50;75.43
68842;SHT35;55849;48.482;2.332;2023-09-18T10:42:24;22.53;75.45
68842;SHT35;55849;48.482;2.332;2023-09-18T10:45:26;22.53;75.73
68842;SHT35;55849;48.482;2.332;2023-09-18T10:48:29;22.58;75.23
68842;SHT35;55849;48.482;2.332;2023-09-18T10:51:32;22.60;74.76
68842;SHT35;55849;48.482;2.332;2023-09-18T10:54:34;22.64;74.12
68842;SHT35;55849;48.482;2.332;2023-09-18T10:57:49;22.68;75.41
68842;SHT35;55849;48.482;2.332;2023-09-18T11:00:51;22.73;74.38
68842;SHT35;55849;48.482;2.332;2023-09-18T11:04:00;22.73;73.47
68842;SHT35;55849;48.482;2.332;2023-09-18T11:07:03;22.73;74.85
68842;SHT35;55849;48.482;2.332;2023-09-18T11:10:27;22.82;73.70
68842;SHT35;55849;48.482;2.332;2023-09-18T11:13:30;22.88;73.79
68842;SHT35;55849;48.482;2.332;2023-09-18T11:16:35;22.91;73.72
68842;SHT35;55849;48.482;2.332;2023-09-18T11:19:41;22.95;72.60
68842;SHT35;55849;48.482;2.332;2023-09-18T11:22:47;22.99;72.65
68842;SHT35;55849;48.482;2.332;2023-09-18T11:25:48;23.02;72.96
68842;SHT35;55849;48.482;2.332;2023-09-18T11:28:52;23.03;71.99
68842;SHT35;55849;48.482;2.332;2023-09-18T11:31:54;23.12;72.31
68842;SHT35;55849;48.482;2.332;2023-09-18T11:35:07;23.21;72.95
68842;SHT35;55849;48.482;2.332;2023-09-18T11:38:10;23.27;73.26
68842;SHT35;55849;48.482;2.332;2023-09-18T11:41:23;23.38;73.07
68842;SHT35;55849;48.482;2.332;2023-09-18T11:44:31;23.46;72.96
68842;SHT35;55849;48.482;2.332;2023-09-18T11:47:36;23.55;72.29
68842;SHT35;55849;48.482;2.332;2023-09-18T11:50:44;23.61;71.98
68842;SHT35;55849;48.482;2.332;2023-09-18T11:53:46;23.69;70.95
68842;SHT35;55849;48.482;2.332;2023-09-18T11:56:48;23.76;71.02
68842;SHT35;55849;48.482;2.332;2023-09-18T11:59:50;23.81;70.30
68842;SHT35;55849;48.482;2.332;2023-09-18T12:02:52;23.86;70.09
68842;SHT35;55849;48.482;2.332;2023-09-18T12:05:59;23.89;69.77
68842;SHT35;55849;48.482;2.332;2023-09-18T12:09:01;23.96;69.50
68842;SHT35;55849;48.482;2.332;2023-09-18T12:12:06;24.02;70.14
68842;SHT35;55849;48.482;2.332;2023-09-18T12:15:11;24.12;69.77
68842;SHT35;55849;48.482;2.332;2023-09-18T12:18:14;24.20;69.49
68842;SHT35;55849;48.482;2.332;2023-09-18T12:21:17;24.31;70.68
68842;SHT35;55849;48.482;2.332;2023-09-18T12:24:21;24.51;69.37
68842;SHT35;55849;48.482;2.332;2023-09-18T12:27:22;24.65;67.29
68842;SHT35;55849;48.482;2.332;2023-09-18T12:30:27;24.77;67.25
68842;SHT35;55849;48.482;2.332;2023-09-18T12:33:29;24.93;66.50
68842;SHT35;55849;48.482;2.332;2023-09-18T12:36:34;25.04;65.72
68842;SHT35;55849;48.482;2.332;2023-09-18T12:39:35;25.11;65.62
68842;SHT35;55849;48.482;2.332;2023-09-18T12:42:39;25.18;66.05
68842;SHT35;55849;48.482;2.332;2023-09-18T12:45:42;25.30;66.41
68842;SHT35;55849;48.482;2.332;2023-09-18T12:48:44;25.46;65.41
68842;SHT35;55849;48.482;2.332;2023-09-18T12:51:58;25.68;64.63
68842;SHT35;55849;48.482;2.332;2023-09-18T12:54:59;25.85;63.77
68842;SHT35;55849;48.482;2.332;2023-09-18T12:58:03;25.94;64.00
68842;SHT35;55849;48.482;2.332;2023-09-18T13:01:08;25.98;62.98
68842;SHT35;55849;48.482;2.332;2023-09-18T13:04:12;25.97;62.02
68842;SHT35;55849;48.482;2.332;2023-09-18T13:07:15;25.97;62.49
68842;SHT35;55849;48.482;2.332;2023-09-18T13:10:17;26.05;62.92
68842;SHT35;55849;48.482;2.332;2023-09-18T13:13:20;26.01;62.30
68842;SHT35;55849;48.482;2.332;2023-09-18T13:16:22;25.98;63.16
68842;SHT35;55849;48.482;2.332;2023-09-18T13:19:24;25.94;63.18
68842;SHT35;55849;48.482;2.332;2023-09-18T13:22:27;25.87;63.76
68842;SHT35;55849;48.482;2.332;2023-09-18T13:25:30;25.77;64.78
68842;SHT35;55849;48.482;2.332;2023-09-18T13:28:32;25.69;65.77
68842;SHT35;55849;48.482;2.332;2023-09-18T13:31:35;25.58;65.34
68842;SHT35;55849;48.482;2.332;2023-09-18T13:34:37;25.49;65.39
68842;SHT35;55849;48.482;2.332;2023-09-18T13:37:41;25.41;66.00
68842;SHT35;55849;48.482;2.332;2023-09-18T13:40:45;25.37;65.07
68842;SHT35;55849;48.482;2.332;2023-09-18T13:43:47;25.39;65.10
68842;SHT35;55849;48.482;2.332;2023-09-18T13:46:49;25.48;64.49
68842;SHT35;55849;48.482;2.332;2023-09-18T13:49:50;25.62;65.21
68842;SHT35;55849;48.482;2.332;2023-09-18T13:52:54;25.86;63.60
68842;SHT35;55849;48.482;2.332;2023-09-18T13:55:55;26.14;63.87
68842;SHT35;55849;48.482;2.332;2023-09-18T13:58:57;26.44;63.16
68842;SHT35;55849;48.482;2.332;2023-09-18T14:01:59;26.62;61.08
68842;SHT35;55849;48.482;2.332;2023-09-18T14:05:01;26.72;62.28
68842;SHT35;55849;48.482;2.332;2023-09-18T14:08:05;26.87;62.02
68842;SHT35;55849;48.482;2.332;2023-09-18T14:11:06;26.94;60.68
68842;SHT35;55849;48.482;2.332;2023-09-18T14:14:08;27.03;61.13
68842;SHT35;55849;48.482;2.332;2023-09-18T14:17:10;27.15;62.21
68842;SHT35;55849;48.482;2.332;2023-09-18T14:20:11;27.37;61.74
68842;SHT35;55849;48.482;2.332;2023-09-18T14:23:14;27.57;59.77
68842;SHT35;55849;48.482;2.332;2023-09-18T14:26:16;27.63;59.34
68842;SHT35;55849;48.482;2.332;2023-09-18T14:29:18;27.56;58.99
68842;SHT35;55849;48.482;2.332;2023-09-18T14:32:19;27.43;60.08
68842;SHT35;55849;48.482;2.332;2023-09-18T14:35:21;27.37;59.10
68842;SHT35;55849;48.482;2.332;2023-09-18T14:38:25;27.21;59.79
68842;SHT35;55849;48.482;2.332;2023-09-18T14:41:27;27.10;59.63
68842;SHT35;55849;48.482;2.332;2023-09-18T14:44:28;27.07;59.98
68842;SHT35;55849;48.482;2.332;2023-09-18T14:47:30;27.15;59.25
68842;SHT35;55849;48.482;2.332;2023-09-18T14:50:32;27.22;58.76
68842;SHT35;55849;48.482;2.332;2023-09-18T14:53:36;27.22;59.27
68842;SHT35;55849;48.482;2.332;2023-09-18T14:56:37;27.16;58.85
68842;SHT35;55849;48.482;2.332;2023-09-18T14:59:39;27.07;59.06
68842;SHT35;55849;48.482;2.332;2023-09-18T15:02:42;26.91;59.34
68842;SHT35;55849;48.482;2.332;2023-09-18T15:05:44;26.86;59.29
68842;SHT35;55849;48.482;2.332;2023-09-18T15:08:47;26.90;58.87
68842;SHT35;55849;48.482;2.332;2023-09-18T15:11:49;26.93;58.48
68842;SHT35;55849;48.482;2.332;2023-09-18T15:14:51;27.00;59.48
68842;SHT35;55849;48.482;2.332;2023-09-18T15:17:52;26.98;57.81
68842;SHT35;55849;48.482;2.332;2023-09-18T15:20:55;26.94;58.33
68842;SHT35;55849;48.482;2.332;2023-09-18T15:23:58;26.89;58.65
68842;SHT35;55849;48.482;2.332;2023-09-18T15:26:59;26.89;58.49
68842;SHT35;55849;48.482;2.332;2023-09-18T15:30:01;26.96;59.17
68842;SHT35;55849;48.482;2.332;2023-09-18T15:33:04;27.08;58.27
68842;SHT35;55849;48.482;2.332;2023-09-18T15:36:07;27.16;59.39
68842;SHT35;55849;48.482;2.332;2023-09-18T15:39:10;27.28;58.05
68842;SHT35;55849;48.482;2.332;2023-09-18T15:42:13;27.37;57.51
68842;SHT35;55849;48.482;2.332;2023-09-18T15:45:15;27.39;57.71
68842;SHT35;55849;48.482;2.332;2023-09-18T15:48:17;27.32;58.72
68842;SHT35;55849;48.482;2.332;2023-09-18T15:51:19;27.21;57.67
68842;SHT35;55849;48.482;2.332;2023-09-18T15:54:22;27.07;56.98
68842;SHT35;55849;48.482;2.332;2023-09-18T15:57:23;26.90;57.28
68842;SHT35;55849;48.482;2.332;2023-09-18T16:00:25;26.76;58.34
68842;SHT35;55849;48.482;2.332;2023-09-18T16:03:27;26.60;58.29
68842;SHT35;55849;48.482;2.332;2023-09-18T16:06:28;26.46;59.14
68842;SHT35;55849;48.482;2.332;2023-09-18T16:09:33;26.34;59.06
68842;SHT35;55849;48.482;2.332;2023-09-18T16:12:35;26.20;59.67
68842;SHT35;55849;48.482;2.332;2023-09-18T16:15:55;26.07;59.85
68842;SHT35;55849;48.482;2.332;2023-09-18T16:18:58;25.92;59.43
68842;SHT35;55849;48.482;2.332;2023-09-18T16:22:00;25.82;60.82
68842;SHT35;55849;48.482;2.332;2023-09-18T16:25:04;25.70;60.47
68842;SHT35;55849;48.482;2.332;2023-09-18T16:28:06;25.55;60.62
68842;SHT35;55849;48.482;2.332;2023-09-18T16:31:08;25.46;63.38
68842;SHT35;55849;48.482;2.332;2023-09-18T16:34:10;25.34;64.16
68842;SHT35;55849;48.482;2.332;2023-09-18T16:37:11;25.20;64.80
68842;SHT35;55849;48.482;2.332;2023-09-18T16:40:15;25.04;65.76
68842;SHT35;55849;48.482;2.332;2023-09-18T16:43:17;24.93;67.20
68842;SHT35;55849;48.482;2.332;2023-09-18T16:46:20;24.77;66.99
68842;SHT35;55849;48.482;2.332;2023-09-18T16:49:21;24.68;67.45
68842;SHT35;55849;48.482;2.332;2023-09-18T16:52:23;24.59;68.87
68842;SHT35;55849;48.482;2.332;2023-09-18T16:55:26;24.52;68.99
68842;SHT35;55849;48.482;2.332;2023-09-18T16:58:28;24.48;68.90
68842;SHT35;55849;48.482;2.332;2023-09-18T17:01:30;24.40;68.92
68842;SHT35;55849;48.482;2.332;2023-09-18T17:04:32;24.35;69.03
68842;SHT35;55849;48.482;2.332;2023-09-18T17:07:34;24.28;69.22
68842;SHT35;55849;48.482;2.332;2023-09-18T17:10:37;24.25;69.25
68842;SHT35;55849;48.482;2.332;2023-09-18T17:13:40;24.18;69.14
68842;SHT35;55849;48.482;2.332;2023-09-18T17:16:42;24.12;68.61
68842;SHT35;55849;48.482;2.332;2023-09-18T17:19:44;24.09;70.75
68842;SHT35;55849;48.482;2.332;2023-09-18T17:22:46;24.00;69.61
68842;SHT35;55849;48.482;2.332;2023-09-18T17:25:49;23.93;70.14
68842;SHT35;55849;48.482;2.332;2023-09-18T17:28:51;23.92;70.17
68842;SHT35;55849;48.482;2.332;2023-09-18T17:31:53;23.82;70.19
68842;SHT35;55849;48.482;2.332;2023-09-18T17:34:55;23.76;70.35
68842;SHT35;55849;48.482;2.332;2023-09-18T17:37:56;23.73;70.06
68842;SHT35;55849;48.482;2.332;2023-09-18T17:40:59;23.68;70.91
68842;SHT35;55849;48.482;2.332;2023-09-18T17:44:01;23.62;69.40
68842;SHT35;55849;48.482;2.332;2023-09-18T17:47:03;23.53;69.27
68842;SHT35;55849;48.482;2.332;2023-09-18T17:50:06;23.44;70.02
68842;SHT35;55849;48.482;2.332;2023-09-18T17:53:08;23.34;69.53
68842;SHT35;55849;48.482;2.332;2023-09-18T17:56:11;23.27;70.02
68842;SHT35;55849;48.482;2.332;2023-09-18T17:59:13;23.20;70.24
68842;SHT35;55849;48.482;2.332;2023-09-18T18:02:15;23.14;69.63
68842;SHT35;55849;48.482;2.332;2023-09-18T18:05:17;23.10;70.05
68842;SHT35;55849;48.482;2.332;2023-09-18T18:08:19;23.09;70.01
68842;SHT35;55849;48.482;2.332;2023-09-18T18:11:22;23.03;70.42
68842;SHT35;55849;48.482;2.332;2023-09-18T18:14:25;22.98;70.06
68842;SHT35;55849;48.482;2.332;2023-09-18T18:17:27;22.95;71.20
68842;SHT35;55849;48.482;2.332;2023-09-18T18:20:29;22.92;70.39
68842;SHT35;55849;48.482;2.332;2023-09-18T18:23:30;22.88;70.51
68842;SHT35;55849;48.482;2.332;2023-09-18T18:26:33;22.82;70.61
68842;SHT35;55849;48.482;2.332;2023-09-18T18:29:36;22.78;70.31
68842;SHT35;55849;48.482;2.332;2023-09-18T18:32:39;22.73;71.10
68842;SHT35;55849;48.482;2.332;2023-09-18T18:35:40;22.67;71.23
68842;SHT35;55849;48.482;2.332;2023-09-18T18:38:42;22.62;70.57
68842;SHT35;55849;48.482;2.332;2023-09-18T18:41:45;22.60;70.86
68842;SHT35;55849;48.482;2.332;2023-09-18T18:44:47;22.54;69.95
68842;SHT35;55849;48.482;2.332;2023-09-18T18:47:49;22.48;70.17
68842;SHT35;55849;48.482;2.332;2023-09-18T18:51:00;22.43;70.09
68842;SHT35;55849;48.482;2.332;2023-09-18T18:54:02;22.36;71.05
68842;SHT35;55849;48.482;2.332;2023-09-18T18:57:05;22.37;71.46
68842;SHT35;55849;48.482;2.332;2023-09-18T19:00:07;22.30;71.93
68842;SHT35;55849;48.482;2.332;2023-09-18T19:03:11;22.30;72.25
68842;SHT35;55849;48.482;2.332;2023-09-18T19:06:13;22.32;72.50
68842;SHT35;55849;48.482;2.332;2023-09-18T19:09:15;22.32;72.55
68842;SHT35;55849;48.482;2.332;2023-09-18T19:12:19;22.30;72.77
68842;SHT35;55849;48.482;2.332;2023-09-18T19:15:20;22.32;73.49